sensor_id;sensor_type;location;lat;lon;timestamp;P1;durP1;ratioP1;P2;durP2;ratioP2
3831;SDS011;12460;42.662;23.288;2023-05-02T00:10:28;6.47;;;5.97;;
3831;SDS011;12460;42.662;23.288;2023-05-02T00:25:32;6.87;;;6.30;;
3831;SDS011;12460;42.662;23.288;2023-05-02T00:40:47;7.87;;;7.17;;
3831;SDS011;12460;42.662;23.288;2023-05-02T00:55:59;8.73;;;8.00;;
3831;SDS011;12460;42.662;23.288;2023-05-02T01:11:14;8.13;;;7.43;;
3831;SDS011;12460;42.662;23.288;2023-05-02T01:42:04;7.83;;;7.20;;
3831;SDS011;12460;42.662;23.288;2023-05-02T01:57:10;8.70;;;8.00;;
3831;SDS011;12460;42.662;23.288;2023-05-02T02:12:18;9.70;;;8.70;;
3831;SDS011;12460;42.662;23.288;2023-05-02T02:27:32;9.73;;;8.73;;
3831;SDS011;12460;42.662;23.288;2023-05-02T02:58:20;9.03;;;8.23;;
3831;SDS011;12460;42.662;23.288;2023-05-02T03:13:49;9.17;;;8.27;;
3831;SDS011;12460;42.662;23.288;2023-05-02T03:28:57;8.80;;;8.00;;
3831;SDS011;12460;42.662;23.288;2023-05-02T03:44:07;9.57;;;8.57;;
3831;SDS011;12460;42.662;23.288;2023-05-02T03:59:13;9.47;;;8.53;;
3831;SDS011;12460;42.662;23.288;2023-05-02T04:14:18;8.57;;;7.83;;
3831;SDS011;12460;42.662;23.288;2023-05-02T04:29:25;9.13;;;8.30;;
3831;SDS011;12460;42.662;23.288;2023-05-02T04:44:32;9.63;;;8.73;;
3831;SDS011;12460;42.662;23.288;2023-05-02T04:59:37;8.77;;;7.87;;
3831;SDS011;12460;42.662;23.288;2023-05-02T05:14:42;8.77;;;7.87;;
3831;SDS011;12460;42.662;23.288;2023-05-02T05:29:47;8.73;;;8.03;;
3831;SDS011;12460;42.662;23.288;2023-05-02T05:44:52;9.10;;;8.20;;
3831;SDS011;12460;42.662;23.288;2023-05-02T05:59:56;9.00;;;8.20;;
3831;SDS011;12460;42.662;23.288;2023-05-02T06:15:05;8.90;;;8.10;;
3831;SDS011;12460;42.662;23.288;2023-05-02T06:30:11;8.13;;;7.40;;
3831;SDS011;12460;42.662;23.288;2023-05-02T06:45:16;7.63;;;7.03;;
3831;SDS011;12460;42.662;23.288;2023-05-02T07:00:20;7.30;;;6.40;;
3831;SDS011;12460;42.662;23.288;2023-05-02T07:15:25;6.87;;;6.30;;
3831;SDS011;12460;42.662;23.288;2023-05-02T07:30:30;5.80;;;5.20;;
3831;SDS011;12460;42.662;23.288;2023-05-02T07:45:35;6.33;;;5.83;;
3831;SDS011;12460;42.662;23.288;2023-05-02T08:00:39;6.33;;;5.83;;
3831;SDS011;12460;42.662;23.288;2023-05-02T08:15:44;6.00;;;5.50;;
3831;SDS011;12460;42.662;23.288;2023-05-02T08:30:49;6.27;;;5.77;;
3831;SDS011;12460;42.662;23.288;2023-05-02T08:45:54;5.77;;;5.33;;
3831;SDS011;12460;42.662;23.288;2023-05-02T09:01:17;5.80;;;5.40;;
3831;SDS011;12460;42.662;23.288;2023-05-02T09:16:27;5.10;;;4.60;;
3831;SDS011;12460;42.662;23.288;2023-05-02T09:31:33;5.47;;;4.97;;
3831;SDS011;12460;42.662;23.288;2023-05-02T09:46:46;5.07;;;4.67;;
3831;SDS011;12460;42.662;23.288;2023-05-02T10:01:55;5.20;;;4.73;;
3831;SDS011;12460;42.662;23.288;2023-05-02T10:17:08;4.50;;;4.20;;
3831;SDS011;12460;42.662;23.288;2023-05-02T10:32:17;4.60;;;4.20;;
3831;SDS011;12460;42.662;23.288;2023-05-02T10:47:22;5.30;;;4.30;;
3831;SDS011;12460;42.662;23.288;2023-05-02T11:17:57;4.23;;;3.83;;
3831;SDS011;12460;42.662;23.288;2023-05-02T11:33:12;4.40;;;4.00;;
3831;SDS011;12460;42.662;23.288;2023-05-02T11:48:21;4.20;;;3.80;;
3831;SDS011;12460;42.662;23.288;2023-05-02T12:03:31;4.37;;;4.03;;
3831;SDS011;12460;42.662;23.288;2023-05-02T12:18:37;4.67;;;4.30;;
3831;SDS011;12460;42.662;23.288;2023-05-02T12:33:42;4.13;;;3.83;;
3831;SDS011;12460;42.662;23.288;2023-05-02T12:49:00;4.47;;;4.17;;
3831;SDS011;12460;42.662;23.288;2023-05-02T13:04:08;4.10;;;3.80;;
3831;SDS011;12460;42.662;23.288;2023-05-02T13:19:13;6.63;;;3.90;;
3831;SDS011;12460;42.662;23.288;2023-05-02T13:34:17;4.13;;;3.77;;
3831;SDS011;12460;42.662;23.288;2023-05-02T13:49:23;5.40;;;3.20;;
3831;SDS011;12460;42.662;23.288;2023-05-02T14:04:27;3.60;;;3.40;;
3831;SDS011;12460;42.662;23.288;2023-05-02T14:19:32;3.60;;;3.30;;
3831;SDS011;12460;42.662;23.288;2023-05-02T14:34:37;5.40;;;3.73;;
3831;SDS011;12460;42.662;23.288;2023-05-02T14:49:42;3.80;;;3.50;;
3831;SDS011;12460;42.662;23.288;2023-05-02T15:04:47;4.67;;;3.37;;
3831;SDS011;12460;42.662;23.288;2023-05-02T15:19:52;3.50;;;3.20;;
3831;SDS011;12460;42.662;23.288;2023-05-02T15:35:00;3.60;;;3.27;;
3831;SDS011;12460;42.662;23.288;2023-05-02T15:50:06;4.30;;;3.30;;
3831;SDS011;12460;42.662;23.288;2023-05-02T16:05:11;3.37;;;3.03;;
3831;SDS011;12460;42.662;23.288;2023-05-02T16:20:17;3.63;;;2.87;;
3831;SDS011;12460;42.662;23.288;2023-05-02T16:35:22;3.40;;;2.80;;
3831;SDS011;12460;42.662;23.288;2023-05-02T16:50:27;3.00;;;2.80;;
3831;SDS011;12460;42.662;23.288;2023-05-02T17:05:31;2.87;;;2.67;;
3831;SDS011;12460;42.662;23.288;2023-05-02T17:20:35;3.70;;;3.27;;
3831;SDS011;12460;42.662;23.288;2023-05-02T17:35:40;3.07;;;2.87;;
3831;SDS011;12460;42.662;23.288;2023-05-02T17:50:45;3.30;;;2.50;;
3831;SDS011;12460;42.662;23.288;2023-05-02T18:05:51;3.17;;;2.87;;
3831;SDS011;12460;42.662;23.288;2023-05-02T18:20:56;3.03;;;2.73;;
3831;SDS011;12460;42.662;23.288;2023-05-02T18:36:01;3.10;;;2.80;;
3831;SDS011;12460;42.662;23.288;2023-05-02T18:51:06;3.43;;;3.00;;
3831;SDS011;12460;42.662;23.288;2023-05-02T19:06:11;3.00;;;2.80;;
3831;SDS011;12460;42.662;23.288;2023-05-02T19:21:16;2.80;;;2.60;;
3831;SDS011;12460;42.662;23.288;2023-05-02T19:36:22;3.17;;;2.90;;
3831;SDS011;12460;42.662;23.288;2023-05-02T19:51:28;3.20;;;3.00;;
3831;SDS011;12460;42.662;23.288;2023-05-02T20:06:35;3.90;;;3.50;;
3831;SDS011;12460;42.662;23.288;2023-05-02T20:21:40;4.43;;;3.30;;
3831;SDS011;12460;42.662;23.288;2023-05-02T20:36:45;5.40;;;3.47;;
3831;SDS011;12460;42.662;23.288;2023-05-02T20:51:50;3.70;;;3.00;;
3831;SDS011;12460;42.662;23.288;2023-05-02T21:06:55;3.70;;;3.50;;
3831;SDS011;12460;42.662;23.288;2023-05-02T21:22:00;4.83;;;3.53;;
3831;SDS011;12460;42.662;23.288;2023-05-02T21:37:04;3.97;;;3.33;;
3831;SDS011;12460;42.662;23.288;2023-05-02T21:52:09;5.53;;;4.03;;
3831;SDS011;12460;42.662;23.288;2023-05-02T22:07:13;4.30;;;3.53;;
3831;SDS011;12460;42.662;23.288;2023-05-02T22:22:17;3.80;;;3.50;;
3831;SDS011;12460;42.662;23.288;2023-05-02T22:37:21;4.53;;;4.17;;
3831;SDS011;12460;42.662;23.288;2023-05-02T22:52:25;4.37;;;3.90;;
3831;SDS011;12460;42.662;23.288;2023-05-02T23:07:32;3.57;;;3.27;;
3831;SDS011;12460;42.662;23.288;2023-05-02T23:22:41;4.00;;;3.30;;
3831;SDS011;12460;42.662;23.288;2023-05-02T23:37:48;3.60;;;3.30;;
3831;SDS011;12460;42.662;23.288;2023-05-02T23:52:53;6.80;;;3.53;;
